sensor_id;sensor_type;location;lat;lon;timestamp;P1;durP1;ratioP1;P2;durP2;ratioP2
37201;SDS011;37799;52.390;6.136;2023-04-24T00:00:11;0.60;;;0.10;;
37201;SDS011;37799;52.390;6.136;2023-04-24T00:02:41;2.40;;;0.43;;
37201;SDS011;37799;52.390;6.136;2023-04-24T00:05:09;1.65;;;0.28;;
37201;SDS011;37799;52.390;6.136;2023-04-24T00:07:35;2.03;;;0.40;;
37201;SDS011;37799;52.390;6.136;2023-04-24T00:10:00;1.77;;;0.40;;
37201;SDS011;37799;52.390;6.136;2023-04-24T00:12:26;1.83;;;0.30;;
37201;SDS011;37799;52.390;6.136;2023-04-24T00:14:52;0.95;;;0.20;;
37201;SDS011;37799;52.390;6.136;2023-04-24T00:17:17;0.98;;;0.20;;
37201;SDS011;37799;52.390;6.136;2023-04-24T00:19:45;1.05;;;0.30;;
37201;SDS011;37799;52.390;6.136;2023-04-24T00:22:11;1.13;;;0.22;;
37201;SDS011;37799;52.390;6.136;2023-04-24T00:24:38;1.63;;;0.40;;
37201;SDS011;37799;52.390;6.136;2023-04-24T00:27:03;3.58;;;0.52;;
37201;SDS011;37799;52.390;6.136;2023-04-24T00:29:28;1.38;;;0.30;;
37201;SDS011;37799;52.390;6.136;2023-04-24T00:31:54;1.63;;;0.40;;
37201;SDS011;37799;52.390;6.136;2023-04-24T00:34:19;1.83;;;0.40;;
37201;SDS011;37799;52.390;6.136;2023-04-24T00:36:44;1.58;;;0.30;;
37201;SDS011;37799;52.390;6.136;2023-04-24T00:39:11;1.88;;;0.32;;
37201;SDS011;37799;52.390;6.136;2023-04-24T00:41:36;3.80;;;0.40;;
37201;SDS011;37799;52.390;6.136;2023-04-24T00:44:02;0.93;;;0.13;;
37201;SDS011;37799;52.390;6.136;2023-04-24T00:46:27;1.63;;;0.50;;
37201;SDS011;37799;52.390;6.136;2023-04-24T00:48:53;1.92;;;0.30;;
37201;SDS011;37799;52.390;6.136;2023-04-24T00:51:19;1.52;;;0.47;;
37201;SDS011;37799;52.390;6.136;2023-04-24T00:53:44;1.42;;;0.40;;
37201;SDS011;37799;52.390;6.136;2023-04-24T00:56:10;2.33;;;0.50;;
37201;SDS011;37799;52.390;6.136;2023-04-24T00:58:35;2.45;;;0.82;;
37201;SDS011;37799;52.390;6.136;2023-04-24T01:01:01;1.50;;;0.57;;
37201;SDS011;37799;52.390;6.136;2023-04-24T01:03:28;2.55;;;0.60;;
37201;SDS011;37799;52.390;6.136;2023-04-24T01:05:56;2.25;;;0.63;;
37201;SDS011;37799;52.390;6.136;2023-04-24T01:08:23;3.60;;;0.77;;
37201;SDS011;37799;52.390;6.136;2023-04-24T01:10:50;3.13;;;0.80;;
37201;SDS011;37799;52.390;6.136;2023-04-24T01:13:17;3.70;;;0.80;;
37201;SDS011;37799;52.390;6.136;2023-04-24T01:15:44;4.50;;;1.27;;
37201;SDS011;37799;52.390;6.136;2023-04-24T01:18:09;3.67;;;1.10;;
37201;SDS011;37799;52.390;6.136;2023-04-24T01:20:35;3.80;;;0.90;;
37201;SDS011;37799;52.390;6.136;2023-04-24T01:23:04;3.33;;;0.82;;
37201;SDS011;37799;52.390;6.136;2023-04-24T01:25:30;5.28;;;1.13;;
37201;SDS011;37799;52.390;6.136;2023-04-24T01:27:56;3.75;;;0.95;;
37201;SDS011;37799;52.390;6.136;2023-04-24T01:30:21;1.85;;;0.57;;
37201;SDS011;37799;52.390;6.136;2023-04-24T01:32:46;2.25;;;0.55;;
37201;SDS011;37799;52.390;6.136;2023-04-24T01:35:13;3.28;;;0.98;;
37201;SDS011;37799;52.390;6.136;2023-04-24T01:37:38;5.35;;;1.13;;
37201;SDS011;37799;52.390;6.136;2023-04-24T01:40:05;4.05;;;1.10;;
37201;SDS011;37799;52.390;6.136;2023-04-24T01:42:31;2.83;;;0.80;;
37201;SDS011;37799;52.390;6.136;2023-04-24T01:44:57;3.53;;;0.93;;
37201;SDS011;37799;52.390;6.136;2023-04-24T01:47:22;5.65;;;1.00;;
37201;SDS011;37799;52.390;6.136;2023-04-24T01:49:49;2.92;;;0.80;;
37201;SDS011;37799;52.390;6.136;2023-04-24T01:52:15;4.80;;;1.45;;
37201;SDS011;37799;52.390;6.136;2023-04-24T01:54:41;3.92;;;1.10;;
37201;SDS011;37799;52.390;6.136;2023-04-24T01:57:06;4.35;;;1.30;;
37201;SDS011;37799;52.390;6.136;2023-04-24T01:59:32;4.82;;;1.23;;
37201;SDS011;37799;52.390;6.136;2023-04-24T02:01:58;3.05;;;0.85;;
37201;SDS011;37799;52.390;6.136;2023-04-24T02:04:23;4.88;;;1.10;;
37201;SDS011;37799;52.390;6.136;2023-04-24T02:06:49;3.55;;;0.80;;
37201;SDS011;37799;52.390;6.136;2023-04-24T02:09:14;5.45;;;1.80;;
37201;SDS011;37799;52.390;6.136;2023-04-24T02:11:39;4.85;;;0.95;;
37201;SDS011;37799;52.390;6.136;2023-04-24T02:14:05;2.83;;;1.15;;
37201;SDS011;37799;52.390;6.136;2023-04-24T02:16:30;4.28;;;1.25;;
37201;SDS011;37799;52.390;6.136;2023-04-24T02:19:00;4.85;;;1.33;;
37201;SDS011;37799;52.390;6.136;2023-04-24T02:21:26;3.45;;;0.98;;
37201;SDS011;37799;52.390;6.136;2023-04-24T02:23:52;1.48;;;0.52;;
37201;SDS011;37799;52.390;6.136;2023-04-24T02:26:18;4.50;;;1.20;;
37201;SDS011;37799;52.390;6.136;2023-04-24T02:28:43;4.80;;;1.02;;
37201;SDS011;37799;52.390;6.136;2023-04-24T02:31:09;3.47;;;0.82;;
37201;SDS011;37799;52.390;6.136;2023-04-24T02:33:34;4.40;;;1.20;;
37201;SDS011;37799;52.390;6.136;2023-04-24T02:36:00;3.38;;;0.93;;
37201;SDS011;37799;52.390;6.136;2023-04-24T02:38:26;3.45;;;0.80;;
37201;SDS011;37799;52.390;6.136;2023-04-24T02:40:51;5.20;;;1.23;;
37201;SDS011;37799;52.390;6.136;2023-04-24T02:43:17;5.85;;;2.08;;
37201;SDS011;37799;52.390;6.136;2023-04-24T02:45:42;4.57;;;1.23;;
37201;SDS011;37799;52.390;6.136;2023-04-24T02:48:07;1.10;;;0.50;;
37201;SDS011;37799;52.390;6.136;2023-04-24T02:50:33;4.47;;;1.33;;
37201;SDS011;37799;52.390;6.136;2023-04-24T02:52:58;3.45;;;0.93;;
37201;SDS011;37799;52.390;6.136;2023-04-24T02:55:23;3.67;;;1.08;;
37201;SDS011;37799;52.390;6.136;2023-04-24T02:57:50;1.85;;;0.50;;
37201;SDS011;37799;52.390;6.136;2023-04-24T03:00:15;5.25;;;1.00;;
37201;SDS011;37799;52.390;6.136;2023-04-24T03:02:41;5.35;;;1.30;;
37201;SDS011;37799;52.390;6.136;2023-04-24T03:05:06;3.47;;;0.85;;
37201;SDS011;37799;52.390;6.136;2023-04-24T03:07:32;4.03;;;1.00;;
37201;SDS011;37799;52.390;6.136;2023-04-24T03:09:57;4.90;;;1.30;;
37201;SDS011;37799;52.390;6.136;2023-04-24T03:12:23;4.85;;;1.25;;
37201;SDS011;37799;52.390;6.136;2023-04-24T03:14:49;5.18;;;1.17;;
37201;SDS011;37799;52.390;6.136;2023-04-24T03:17:14;5.28;;;1.00;;
37201;SDS011;37799;52.390;6.136;2023-04-24T03:19:39;5.63;;;1.38;;
37201;SDS011;37799;52.390;6.136;2023-04-24T03:22:05;5.82;;;1.55;;
37201;SDS011;37799;52.390;6.136;2023-04-24T03:24:30;4.63;;;1.17;;
37201;SDS011;37799;52.390;6.136;2023-04-24T03:26:56;5.05;;;1.35;;
37201;SDS011;37799;52.390;6.136;2023-04-24T03:29:22;2.72;;;0.57;;
37201;SDS011;37799;52.390;6.136;2023-04-24T03:31:47;4.07;;;1.08;;
37201;SDS011;37799;52.390;6.136;2023-04-24T03:34:12;5.47;;;1.20;;
37201;SDS011;37799;52.390;6.136;2023-04-24T03:36:38;2.80;;;0.77;;
37201;SDS011;37799;52.390;6.136;2023-04-24T03:39:03;4.50;;;0.80;;
37201;SDS011;37799;52.390;6.136;2023-04-24T03:41:28;5.45;;;1.20;;
37201;SDS011;37799;52.390;6.136;2023-04-24T03:43:55;5.40;;;1.33;;
37201;SDS011;37799;52.390;6.136;2023-04-24T03:46:20;4.43;;;0.90;;
37201;SDS011;37799;52.390;6.136;2023-04-24T03:48:46;4.13;;;1.20;;
37201;SDS011;37799;52.390;6.136;2023-04-24T03:51:11;2.78;;;1.13;;
37201;SDS011;37799;52.390;6.136;2023-04-24T03:53:39;5.40;;;1.40;;
37201;SDS011;37799;52.390;6.136;2023-04-24T03:56:05;5.80;;;1.20;;
37201;SDS011;37799;52.390;6.136;2023-04-24T03:58:30;4.38;;;0.93;;
37201;SDS011;37799;52.390;6.136;2023-04-24T04:00:55;4.05;;;0.80;;
37201;SDS011;37799;52.390;6.136;2023-04-24T04:03:22;4.05;;;1.30;;
37201;SDS011;37799;52.390;6.136;2023-04-24T04:05:48;5.03;;;1.13;;
37201;SDS011;37799;52.390;6.136;2023-04-24T04:08:13;5.57;;;1.15;;
37201;SDS011;37799;52.390;6.136;2023-04-24T04:10:38;4.18;;;1.20;;
37201;SDS011;37799;52.390;6.136;2023-04-24T04:13:04;4.78;;;1.27;;
37201;SDS011;37799;52.390;6.136;2023-04-24T04:15:31;4.50;;;0.75;;
37201;SDS011;37799;52.390;6.136;2023-04-24T04:17:56;3.25;;;0.77;;
37201;SDS011;37799;52.390;6.136;2023-04-24T04:20:21;4.60;;;0.88;;
37201;SDS011;37799;52.390;6.136;2023-04-24T04:22:47;3.97;;;1.00;;
37201;SDS011;37799;52.390;6.136;2023-04-24T04:25:12;3.55;;;0.77;;
37201;SDS011;37799;52.390;6.136;2023-04-24T04:27:38;3.85;;;0.75;;
37201;SDS011;37799;52.390;6.136;2023-04-24T04:30:04;3.83;;;1.00;;
37201;SDS011;37799;52.390;6.136;2023-04-24T04:32:31;3.25;;;0.85;;
37201;SDS011;37799;52.390;6.136;2023-04-24T04:34:58;4.22;;;1.00;;
37201;SDS011;37799;52.390;6.136;2023-04-24T04:37:28;4.22;;;1.15;;
37201;SDS011;37799;52.390;6.136;2023-04-24T04:39:54;4.30;;;1.05;;
37201;SDS011;37799;52.390;6.136;2023-04-24T04:42:19;4.20;;;0.95;;
37201;SDS011;37799;52.390;6.136;2023-04-24T04:44:45;3.28;;;0.95;;
37201;SDS011;37799;52.390;6.136;2023-04-24T04:47:10;4.05;;;0.52;;
37201;SDS011;37799;52.390;6.136;2023-04-24T04:49:36;3.83;;;0.82;;
37201;SDS011;37799;52.390;6.136;2023-04-24T04:52:03;4.88;;;1.00;;
37201;SDS011;37799;52.390;6.136;2023-04-24T04:54:28;4.20;;;1.00;;
37201;SDS011;37799;52.390;6.136;2023-04-24T04:56:54;3.90;;;0.98;;
37201;SDS011;37799;52.390;6.136;2023-04-24T04:59:19;3.80;;;1.05;;
37201;SDS011;37799;52.390;6.136;2023-04-24T05:01:45;3.63;;;0.82;;
37201;SDS011;37799;52.390;6.136;2023-04-24T05:04:10;3.05;;;0.65;;
37201;SDS011;37799;52.390;6.136;2023-04-24T05:06:35;5.22;;;1.05;;
37201;SDS011;37799;52.390;6.136;2023-04-24T05:09:01;3.40;;;0.52;;
37201;SDS011;37799;52.390;6.136;2023-04-24T05:11:28;2.67;;;0.28;;
37201;SDS011;37799;52.390;6.136;2023-04-24T05:13:54;4.28;;;0.85;;
37201;SDS011;37799;52.390;6.136;2023-04-24T05:16:19;3.33;;;0.75;;
37201;SDS011;37799;52.390;6.136;2023-04-24T05:18:45;3.80;;;0.70;;
37201;SDS011;37799;52.390;6.136;2023-04-24T05:21:10;3.58;;;0.75;;
37201;SDS011;37799;52.390;6.136;2023-04-24T05:23:36;3.75;;;0.88;;
37201;SDS011;37799;52.390;6.136;2023-04-24T05:26:01;4.22;;;1.10;;
37201;SDS011;37799;52.390;6.136;2023-04-24T05:28:27;2.95;;;0.60;;
37201;SDS011;37799;52.390;6.136;2023-04-24T05:30:54;4.65;;;1.02;;
37201;SDS011;37799;52.390;6.136;2023-04-24T05:33:20;2.75;;;0.55;;
37201;SDS011;37799;52.390;6.136;2023-04-24T05:35:47;3.75;;;0.73;;
37201;SDS011;37799;52.390;6.136;2023-04-24T05:38:13;3.92;;;0.93;;
37201;SDS011;37799;52.390;6.136;2023-04-24T05:40:39;5.10;;;0.98;;
37201;SDS011;37799;52.390;6.136;2023-04-24T05:43:04;5.50;;;0.95;;
37201;SDS011;37799;52.390;6.136;2023-04-24T05:45:30;2.67;;;0.73;;
37201;SDS011;37799;52.390;6.136;2023-04-24T05:47:55;3.63;;;0.82;;
37201;SDS011;37799;52.390;6.136;2023-04-24T05:50:21;3.65;;;0.77;;
37201;SDS011;37799;52.390;6.136;2023-04-24T05:52:46;4.15;;;0.90;;
37201;SDS011;37799;52.390;6.136;2023-04-24T05:55:11;5.32;;;1.30;;
37201;SDS011;37799;52.390;6.136;2023-04-24T05:57:37;4.93;;;1.10;;
37201;SDS011;37799;52.390;6.136;2023-04-24T06:00:03;3.35;;;0.75;;
37201;SDS011;37799;52.390;6.136;2023-04-24T06:02:29;3.33;;;0.77;;
37201;SDS011;37799;52.390;6.136;2023-04-24T06:04:57;4.03;;;1.00;;
37201;SDS011;37799;52.390;6.136;2023-04-24T06:07:24;2.78;;;0.70;;
37201;SDS011;37799;52.390;6.136;2023-04-24T06:09:51;3.10;;;0.60;;
37201;SDS011;37799;52.390;6.136;2023-04-24T06:12:17;5.22;;;1.23;;
37201;SDS011;37799;52.390;6.136;2023-04-24T06:14:42;3.17;;;0.73;;
37201;SDS011;37799;52.390;6.136;2023-04-24T06:17:07;3.80;;;1.00;;
37201;SDS011;37799;52.390;6.136;2023-04-24T06:19:33;2.92;;;0.90;;
37201;SDS011;37799;52.390;6.136;2023-04-24T06:21:58;2.65;;;0.73;;
37201;SDS011;37799;52.390;6.136;2023-04-24T06:24:26;3.55;;;0.75;;
37201;SDS011;37799;52.390;6.136;2023-04-24T06:26:52;3.97;;;0.73;;
37201;SDS011;37799;52.390;6.136;2023-04-24T06:29:17;3.25;;;0.63;;
37201;SDS011;37799;52.390;6.136;2023-04-24T06:31:43;4.50;;;0.98;;
37201;SDS011;37799;52.390;6.136;2023-04-24T06:34:08;2.30;;;0.40;;
37201;SDS011;37799;52.390;6.136;2023-04-24T06:36:33;4.00;;;0.80;;
37201;SDS011;37799;52.390;6.136;2023-04-24T06:39:00;2.72;;;0.55;;
37201;SDS011;37799;52.390;6.136;2023-04-24T06:41:26;2.45;;;0.35;;
37201;SDS011;37799;52.390;6.136;2023-04-24T06:43:52;1.77;;;0.38;;
37201;SDS011;37799;52.390;6.136;2023-04-24T06:46:18;3.80;;;0.77;;
37201;SDS011;37799;52.390;6.136;2023-04-24T06:48:43;2.95;;;0.73;;
37201;SDS011;37799;52.390;6.136;2023-04-24T06:51:08;3.65;;;0.57;;
37201;SDS011;37799;52.390;6.136;2023-04-24T06:53:34;2.78;;;0.50;;
37201;SDS011;37799;52.390;6.136;2023-04-24T06:56:00;2.55;;;0.60;;
37201;SDS011;37799;52.390;6.136;2023-04-24T06:58:25;1.95;;;0.50;;
37201;SDS011;37799;52.390;6.136;2023-04-24T07:00:51;3.58;;;0.70;;
37201;SDS011;37799;52.390;6.136;2023-04-24T07:03:16;3.30;;;0.60;;
37201;SDS011;37799;52.390;6.136;2023-04-24T07:05:41;4.22;;;0.82;;
37201;SDS011;37799;52.390;6.136;2023-04-24T07:08:07;2.50;;;0.38;;
37201;SDS011;37799;52.390;6.136;2023-04-24T07:10:36;2.00;;;0.63;;
37201;SDS011;37799;52.390;6.136;2023-04-24T07:13:01;1.95;;;0.57;;
37201;SDS011;37799;52.390;6.136;2023-04-24T07:15:27;2.33;;;0.47;;
37201;SDS011;37799;52.390;6.136;2023-04-24T07:17:52;2.35;;;0.38;;
37201;SDS011;37799;52.390;6.136;2023-04-24T07:20:17;2.42;;;0.52;;
37201;SDS011;37799;52.390;6.136;2023-04-24T07:22:43;2.85;;;0.75;;
37201;SDS011;37799;52.390;6.136;2023-04-24T07:25:08;0.60;;;0.13;;
37201;SDS011;37799;52.390;6.136;2023-04-24T07:27:34;1.90;;;0.38;;
37201;SDS011;37799;52.390;6.136;2023-04-24T07:30:01;1.50;;;0.30;;
37201;SDS011;37799;52.390;6.136;2023-04-24T07:32:27;2.28;;;0.40;;
37201;SDS011;37799;52.390;6.136;2023-04-24T07:34:52;4.05;;;0.82;;
37201;SDS011;37799;52.390;6.136;2023-04-24T07:37:18;1.23;;;0.30;;
37201;SDS011;37799;52.390;6.136;2023-04-24T07:39:43;4.25;;;0.40;;
37201;SDS011;37799;52.390;6.136;2023-04-24T07:42:08;1.33;;;0.20;;
37201;SDS011;37799;52.390;6.136;2023-04-24T07:44:34;1.30;;;0.22;;
37201;SDS011;37799;52.390;6.136;2023-04-24T07:47:00;1.83;;;0.35;;
37201;SDS011;37799;52.390;6.136;2023-04-24T07:49:26;2.30;;;0.47;;
37201;SDS011;37799;52.390;6.136;2023-04-24T07:51:52;1.75;;;0.28;;
37201;SDS011;37799;52.390;6.136;2023-04-24T07:54:18;2.75;;;0.60;;
37201;SDS011;37799;52.390;6.136;2023-04-24T07:56:43;4.30;;;1.15;;
37201;SDS011;37799;52.390;6.136;2023-04-24T07:59:09;6.20;;;1.58;;
37201;SDS011;37799;52.390;6.136;2023-04-24T08:01:35;6.00;;;2.13;;
37201;SDS011;37799;52.390;6.136;2023-04-24T08:04:01;8.43;;;1.80;;
37201;SDS011;37799;52.390;6.136;2023-04-24T08:06:26;5.38;;;1.45;;
37201;SDS011;37799;52.390;6.136;2023-04-24T08:08:59;5.50;;;1.38;;
37201;SDS011;37799;52.390;6.136;2023-04-24T08:11:25;7.68;;;2.05;;
37201;SDS011;37799;52.390;6.136;2023-04-24T08:13:51;8.20;;;2.40;;
37201;SDS011;37799;52.390;6.136;2023-04-24T08:16:16;6.72;;;1.80;;
37201;SDS011;37799;52.390;6.136;2023-04-24T08:18:41;6.63;;;1.45;;
37201;SDS011;37799;52.390;6.136;2023-04-24T08:21:07;5.53;;;1.50;;
37201;SDS011;37799;52.390;6.136;2023-04-24T08:23:32;4.80;;;1.13;;
37201;SDS011;37799;52.390;6.136;2023-04-24T08:25:57;5.32;;;1.48;;
37201;SDS011;37799;52.390;6.136;2023-04-24T08:28:23;5.53;;;1.52;;
37201;SDS011;37799;52.390;6.136;2023-04-24T08:30:48;3.58;;;0.93;;
37201;SDS011;37799;52.390;6.136;2023-04-24T08:33:19;8.07;;;1.70;;
37201;SDS011;37799;52.390;6.136;2023-04-24T08:35:44;6.88;;;2.38;;
37201;SDS011;37799;52.390;6.136;2023-04-24T08:38:10;6.18;;;1.55;;
37201;SDS011;37799;52.390;6.136;2023-04-24T08:40:35;5.70;;;1.90;;
37201;SDS011;37799;52.390;6.136;2023-04-24T08:43:02;6.80;;;1.60;;
37201;SDS011;37799;52.390;6.136;2023-04-24T08:45:28;5.45;;;1.67;;
37201;SDS011;37799;52.390;6.136;2023-04-24T08:47:54;7.30;;;2.33;;
37201;SDS011;37799;52.390;6.136;2023-04-24T08:50:20;6.95;;;1.65;;
37201;SDS011;37799;52.390;6.136;2023-04-24T08:52:47;5.30;;;1.70;;
37201;SDS011;37799;52.390;6.136;2023-04-24T08:55:12;11.02;;;2.05;;
37201;SDS011;37799;52.390;6.136;2023-04-24T08:57:38;3.95;;;1.38;;
37201;SDS011;37799;52.390;6.136;2023-04-24T09:00:05;5.15;;;1.13;;
37201;SDS011;37799;52.390;6.136;2023-04-24T09:02:31;5.00;;;1.25;;
37201;SDS011;37799;52.390;6.136;2023-04-24T09:04:59;5.35;;;1.70;;
37201;SDS011;37799;52.390;6.136;2023-04-24T09:07:25;5.60;;;1.73;;
37201;SDS011;37799;52.390;6.136;2023-04-24T09:09:52;7.03;;;1.52;;
37201;SDS011;37799;52.390;6.136;2023-04-24T09:12:18;5.88;;;1.38;;
37201;SDS011;37799;52.390;6.136;2023-04-24T09:14:44;6.35;;;1.77;;
37201;SDS011;37799;52.390;6.136;2023-04-24T09:17:10;7.30;;;1.77;;
37201;SDS011;37799;52.390;6.136;2023-04-24T09:19:36;5.60;;;1.33;;
37201;SDS011;37799;52.390;6.136;2023-04-24T09:22:05;8.00;;;1.73;;
37201;SDS011;37799;52.390;6.136;2023-04-24T09:24:32;5.80;;;1.40;;
37201;SDS011;37799;52.390;6.136;2023-04-24T09:26:57;5.95;;;1.40;;
37201;SDS011;37799;52.390;6.136;2023-04-24T09:29:24;4.93;;;1.08;;
37201;SDS011;37799;52.390;6.136;2023-04-24T09:31:50;6.00;;;1.20;;
37201;SDS011;37799;52.390;6.136;2023-04-24T09:34:19;5.47;;;1.52;;
37201;SDS011;37799;52.390;6.136;2023-04-24T09:36:46;6.45;;;1.40;;
37201;SDS011;37799;52.390;6.136;2023-04-24T09:39:13;4.60;;;1.15;;
37201;SDS011;37799;52.390;6.136;2023-04-24T09:41:50;6.28;;;1.48;;
37201;SDS011;37799;52.390;6.136;2023-04-24T09:44:20;3.58;;;0.93;;
37201;SDS011;37799;52.390;6.136;2023-04-24T09:46:49;4.22;;;0.85;;
37201;SDS011;37799;52.390;6.136;2023-04-24T09:51:49;4.10;;;0.90;;
37201;SDS011;37799;52.390;6.136;2023-04-24T09:54:15;4.10;;;0.77;;
37201;SDS011;37799;52.390;6.136;2023-04-24T09:56:46;5.95;;;0.65;;
37201;SDS011;37799;52.390;6.136;2023-04-24T09:59:19;2.72;;;0.80;;
37201;SDS011;37799;52.390;6.136;2023-04-24T10:01:45;1.45;;;0.38;;
37201;SDS011;37799;52.390;6.136;2023-04-24T10:04:23;5.93;;;0.50;;
37201;SDS011;37799;52.390;6.136;2023-04-24T10:06:51;3.00;;;1.15;;
37201;SDS011;37799;52.390;6.136;2023-04-24T10:09:18;6.85;;;0.63;;
37201;SDS011;37799;52.390;6.136;2023-04-24T10:11:45;2.88;;;0.55;;
37201;SDS011;37799;52.390;6.136;2023-04-24T10:14:15;4.63;;;0.57;;
37201;SDS011;37799;52.390;6.136;2023-04-24T10:16:48;5.78;;;0.60;;
37201;SDS011;37799;52.390;6.136;2023-04-24T10:19:15;3.00;;;0.98;;
37201;SDS011;37799;52.390;6.136;2023-04-24T10:21:43;4.10;;;0.50;;
37201;SDS011;37799;52.390;6.136;2023-04-24T10:24:16;5.07;;;0.43;;
37201;SDS011;37799;52.390;6.136;2023-04-24T10:26:43;2.25;;;0.77;;
37201;SDS011;37799;52.390;6.136;2023-04-24T10:29:11;4.03;;;0.52;;
37201;SDS011;37799;52.390;6.136;2023-04-24T10:31:37;4.50;;;0.70;;
37201;SDS011;37799;52.390;6.136;2023-04-24T10:34:06;1.98;;;0.40;;
37201;SDS011;37799;52.390;6.136;2023-04-24T10:36:33;3.30;;;0.50;;
37201;SDS011;37799;52.390;6.136;2023-04-24T10:39:01;3.75;;;0.93;;
37201;SDS011;37799;52.390;6.136;2023-04-24T10:41:27;5.57;;;0.70;;
37201;SDS011;37799;52.390;6.136;2023-04-24T10:44:08;4.13;;;0.40;;
37201;SDS011;37799;52.390;6.136;2023-04-24T10:46:35;1.88;;;0.52;;
37201;SDS011;37799;52.390;6.136;2023-04-24T10:49:03;0.90;;;0.30;;
37201;SDS011;37799;52.390;6.136;2023-04-24T10:51:50;5.03;;;0.68;;
37201;SDS011;37799;52.390;6.136;2023-04-24T10:56:51;5.50;;;0.68;;
37201;SDS011;37799;52.390;6.136;2023-04-24T10:59:34;1.77;;;0.65;;
37201;SDS011;37799;52.390;6.136;2023-04-24T11:02:00;1.45;;;0.30;;
37201;SDS011;37799;52.390;6.136;2023-04-24T11:04:29;1.48;;;0.40;;
37201;SDS011;37799;52.390;6.136;2023-04-24T11:06:56;1.40;;;0.40;;
37201;SDS011;37799;52.390;6.136;2023-04-24T11:09:22;2.05;;;0.35;;
37201;SDS011;37799;52.390;6.136;2023-04-24T11:11:51;2.65;;;0.50;;
37201;SDS011;37799;52.390;6.136;2023-04-24T11:14:28;1.10;;;0.40;;
37201;SDS011;37799;52.390;6.136;2023-04-24T11:16:54;3.85;;;0.20;;
37201;SDS011;37799;52.390;6.136;2023-04-24T11:19:26;1.33;;;0.30;;
37201;SDS011;37799;52.390;6.136;2023-04-24T11:22:13;0.73;;;0.25;;
37201;SDS011;37799;52.390;6.136;2023-04-24T11:24:40;2.72;;;0.47;;
37201;SDS011;37799;52.390;6.136;2023-04-24T11:27:21;0.80;;;0.20;;
37201;SDS011;37799;52.390;6.136;2023-04-24T11:29:48;2.75;;;0.20;;
37201;SDS011;37799;52.390;6.136;2023-04-24T11:32:15;3.40;;;0.75;;
37201;SDS011;37799;52.390;6.136;2023-04-24T11:34:47;2.60;;;0.20;;
37201;SDS011;37799;52.390;6.136;2023-04-24T11:37:13;2.95;;;0.22;;
37201;SDS011;37799;52.390;6.136;2023-04-24T11:39:39;1.65;;;0.10;;
37201;SDS011;37799;52.390;6.136;2023-04-24T11:42:05;2.97;;;0.20;;
37201;SDS011;37799;52.390;6.136;2023-04-24T11:44:33;2.72;;;0.20;;
37201;SDS011;37799;52.390;6.136;2023-04-24T11:46:59;2.00;;;0.10;;
37201;SDS011;37799;52.390;6.136;2023-04-24T11:49:24;1.20;;;0.30;;
37201;SDS011;37799;52.390;6.136;2023-04-24T11:51:50;4.55;;;0.30;;
37201;SDS011;37799;52.390;6.136;2023-04-24T11:54:15;2.58;;;0.22;;
37201;SDS011;37799;52.390;6.136;2023-04-24T11:56:44;2.72;;;0.60;;
37201;SDS011;37799;52.390;6.136;2023-04-24T11:59:11;1.13;;;0.23;;
37201;SDS011;37799;52.390;6.136;2023-04-24T12:01:43;0.70;;;0.10;;
37201;SDS011;37799;52.390;6.136;2023-04-24T12:04:10;1.60;;;0.17;;
37201;SDS011;37799;52.390;6.136;2023-04-24T12:06:35;0.82;;;0.20;;
37201;SDS011;37799;52.390;6.136;2023-04-24T12:09:01;1.75;;;0.15;;
37201;SDS011;37799;52.390;6.136;2023-04-24T12:11:26;1.42;;;0.20;;
37201;SDS011;37799;52.390;6.136;2023-04-24T12:13:51;0.63;;;0.17;;
37201;SDS011;37799;52.390;6.136;2023-04-24T12:16:18;4.72;;;0.10;;
37201;SDS011;37799;52.390;6.136;2023-04-24T12:18:44;2.22;;;0.30;;
37201;SDS011;37799;52.390;6.136;2023-04-24T12:21:20;1.42;;;0.28;;
37201;SDS011;37799;52.390;6.136;2023-04-24T12:23:46;3.33;;;0.20;;
37201;SDS011;37799;52.390;6.136;2023-04-24T12:26:18;0.50;;;0.05;;
37201;SDS011;37799;52.390;6.136;2023-04-24T12:28:46;0.80;;;0.10;;
37201;SDS011;37799;52.390;6.136;2023-04-24T12:31:13;2.08;;;0.20;;
37201;SDS011;37799;52.390;6.136;2023-04-24T12:33:39;2.10;;;0.38;;
37201;SDS011;37799;52.390;6.136;2023-04-24T12:36:05;3.00;;;0.10;;
37201;SDS011;37799;52.390;6.136;2023-04-24T12:38:32;1.90;;;0.20;;
37201;SDS011;37799;52.390;6.136;2023-04-24T12:41:06;1.60;;;0.10;;
37201;SDS011;37799;52.390;6.136;2023-04-24T12:43:33;0.10;;;0.00;;
37201;SDS011;37799;52.390;6.136;2023-04-24T12:45:59;1.23;;;0.10;;
37201;SDS011;37799;52.390;6.136;2023-04-24T12:48:25;0.52;;;0.10;;
37201;SDS011;37799;52.390;6.136;2023-04-24T12:50:51;0.30;;;0.10;;
37201;SDS011;37799;52.390;6.136;2023-04-24T12:53:16;0.10;;;0.00;;
37201;SDS011;37799;52.390;6.136;2023-04-24T12:55:41;2.33;;;0.10;;
37201;SDS011;37799;52.390;6.136;2023-04-24T12:58:07;3.13;;;0.00;;
37201;SDS011;37799;52.390;6.136;2023-04-24T13:00:33;0.98;;;0.10;;
37201;SDS011;37799;52.390;6.136;2023-04-24T13:02:58;0.68;;;0.30;;
37201;SDS011;37799;52.390;6.136;2023-04-24T13:05:23;0.15;;;0.05;;
37201;SDS011;37799;52.390;6.136;2023-04-24T13:07:49;1.42;;;0.50;;
37201;SDS011;37799;52.390;6.136;2023-04-24T13:10:14;0.17;;;0.00;;
37201;SDS011;37799;52.390;6.136;2023-04-24T13:12:39;0.73;;;0.00;;
37201;SDS011;37799;52.390;6.136;2023-04-24T13:15:05;0.30;;;0.05;;
37201;SDS011;37799;52.390;6.136;2023-04-24T13:17:32;0.30;;;0.00;;
37201;SDS011;37799;52.390;6.136;2023-04-24T13:19:59;1.85;;;0.35;;
37201;SDS011;37799;52.390;6.136;2023-04-24T13:22:24;0.30;;;0.10;;
37201;SDS011;37799;52.390;6.136;2023-04-24T13:24:50;0.30;;;0.10;;
37201;SDS011;37799;52.390;6.136;2023-04-24T13:27:16;1.05;;;0.20;;
37201;SDS011;37799;52.390;6.136;2023-04-24T13:29:42;0.52;;;0.17;;
37201;SDS011;37799;52.390;6.136;2023-04-24T13:32:07;0.52;;;0.10;;
37201;SDS011;37799;52.390;6.136;2023-04-24T13:34:33;0.65;;;0.05;;
37201;SDS011;37799;52.390;6.136;2023-04-24T13:36:59;0.10;;;0.00;;
37201;SDS011;37799;52.390;6.136;2023-04-24T13:39:25;2.45;;;0.10;;
37201;SDS011;37799;52.390;6.136;2023-04-24T13:41:51;0.17;;;0.05;;
37201;SDS011;37799;52.390;6.136;2023-04-24T13:44:17;0.38;;;0.00;;
37201;SDS011;37799;52.390;6.136;2023-04-24T13:46:44;0.28;;;0.03;;
37201;SDS011;37799;52.390;6.136;2023-04-24T13:49:11;0.43;;;0.05;;
37201;SDS011;37799;52.390;6.136;2023-04-24T13:51:37;1.70;;;0.10;;
37201;SDS011;37799;52.390;6.136;2023-04-24T13:54:03;0.38;;;0.00;;
37201;SDS011;37799;52.390;6.136;2023-04-24T13:56:28;0.85;;;0.17;;
37201;SDS011;37799;52.390;6.136;2023-04-24T13:58:54;0.25;;;0.10;;
37201;SDS011;37799;52.390;6.136;2023-04-24T14:01:19;0.52;;;0.10;;
37201;SDS011;37799;52.390;6.136;2023-04-24T14:03:46;0.68;;;0.10;;
37201;SDS011;37799;52.390;6.136;2023-04-24T14:06:11;1.75;;;0.10;;
37201;SDS011;37799;52.390;6.136;2023-04-24T14:08:36;1.58;;;0.50;;
37201;SDS011;37799;52.390;6.136;2023-04-24T14:11:02;2.20;;;0.40;;
37201;SDS011;37799;52.390;6.136;2023-04-24T14:13:27;3.35;;;0.25;;
37201;SDS011;37799;52.390;6.136;2023-04-24T14:15:53;1.60;;;0.30;;
37201;SDS011;37799;52.390;6.136;2023-04-24T14:18:19;3.08;;;0.30;;
37201;SDS011;37799;52.390;6.136;2023-04-24T14:20:44;0.90;;;0.10;;
37201;SDS011;37799;52.390;6.136;2023-04-24T14:23:10;1.05;;;0.43;;
37201;SDS011;37799;52.390;6.136;2023-04-24T14:25:35;2.30;;;0.40;;
37201;SDS011;37799;52.390;6.136;2023-04-24T14:28:01;0.60;;;0.10;;
37201;SDS011;37799;52.390;6.136;2023-04-24T14:30:26;2.42;;;0.20;;
37201;SDS011;37799;52.390;6.136;2023-04-24T14:32:52;3.90;;;0.60;;
37201;SDS011;37799;52.390;6.136;2023-04-24T14:35:18;1.60;;;0.30;;
37201;SDS011;37799;52.390;6.136;2023-04-24T14:37:43;2.88;;;0.30;;
37201;SDS011;37799;52.390;6.136;2023-04-24T14:40:09;1.58;;;0.40;;
37201;SDS011;37799;52.390;6.136;2023-04-24T14:42:35;3.20;;;0.20;;
37201;SDS011;37799;52.390;6.136;2023-04-24T14:45:00;2.47;;;0.60;;
37201;SDS011;37799;52.390;6.136;2023-04-24T14:47:26;4.65;;;0.45;;